createdAt,value
2023-03-03T00:01:29.655Z,101358.47
2023-03-03T00:03:57.130Z,101350.72
2023-03-03T00:06:24.940Z,101342.13
2023-03-03T00:08:51.494Z,101335.34
2023-03-03T00:11:18.026Z,101349.41
2023-03-03T00:13:50.524Z,101348.53
2023-03-03T00:16:21.928Z,101355.47
2023-03-03T00:18:48.931Z,101366.00
2023-03-03T00:21:26.149Z,101374.66
2023-03-03T00:23:53.706Z,101374.38
2023-03-03T00:26:36.465Z,101387.47
2023-03-03T00:29:40.627Z,101380.53
2023-03-03T00:32:21.305Z,101392.97
2023-03-03T00:34:48.952Z,101383.13
2023-03-03T00:37:35.592Z,101381.00
2023-03-03T00:40:24.109Z,101384.16
2023-03-03T00:42:57.705Z,101385.69
2023-03-03T00:45:33.611Z,101382.19
2023-03-03T00:48:17.677Z,101385.69
2023-03-03T00:50:44.465Z,101390.09
2023-03-03T00:53:14.707Z,101382.47
2023-03-03T00:55:41.162Z,101379.09
2023-03-03T00:58:07.771Z,101382.53
2023-03-03T01:00:40.245Z,101372.56
2023-03-03T01:03:12.672Z,101361.22
2023-03-03T01:05:39.250Z,101364.88
2023-03-03T01:08:06.732Z,101365.13
2023-03-03T01:10:38.234Z,101365.41
2023-03-03T01:13:06.093Z,101368.25
2023-03-03T01:15:32.741Z,101375.38
2023-03-03T01:17:59.538Z,101369.44
2023-03-03T01:20:26.844Z,101377.34
2023-03-03T01:22:53.371Z,101379.91
2023-03-03T01:25:20.056Z,101374.66
2023-03-03T01:27:46.509Z,101375.81
2023-03-03T01:30:13.340Z,101374.81
2023-03-03T01:32:39.814Z,101365.91
2023-03-03T01:35:06.978Z,101355.31
2023-03-03T01:37:35.207Z,101368.44
2023-03-03T01:40:06.797Z,101369.09
2023-03-03T01:42:33.846Z,101375.03
2023-03-03T01:45:16.957Z,101380.00
2023-03-03T01:48:00.143Z,101379.13
2023-03-03T01:50:58.383Z,101374.38
2023-03-03T01:53:42.221Z,101373.38
2023-03-03T01:56:10.545Z,101366.53
2023-03-03T01:58:41.630Z,101374.72
2023-03-03T02:01:13.703Z,101369.50
2023-03-03T02:03:41.196Z,101359.31
2023-03-03T02:06:15.637Z,101349.78
2023-03-03T02:09:02.556Z,101347.25
2023-03-03T02:11:32.451Z,101351.91
2023-03-03T02:13:59.110Z,101352.06
2023-03-03T02:16:25.819Z,101344.22
2023-03-03T02:18:52.635Z,101351.28
2023-03-03T02:21:24.375Z,101349.66
2023-03-03T02:24:00.138Z,101342.59
2023-03-03T02:26:35.994Z,101337.22
2023-03-03T02:29:07.352Z,101339.91
2023-03-03T02:31:34.638Z,101346.22
2023-03-03T02:34:01.440Z,101340.28
2023-03-03T02:36:33.920Z,101341.34
2023-03-03T02:39:09.470Z,101345.94
2023-03-03T02:41:56.442Z,101325.09
2023-03-03T02:44:30.183Z,101325.81
2023-03-03T02:46:59.247Z,101331.88
2023-03-03T02:49:29.178Z,101327.13
2023-03-03T02:51:56.873Z,101324.16
2023-03-03T02:54:26.074Z,101319.56
2023-03-03T02:56:52.877Z,101326.41
2023-03-03T02:59:20.719Z,101332.41
2023-03-03T03:01:49.649Z,101322.81
2023-03-03T03:04:21.539Z,101336.88
2023-03-03T03:06:50.516Z,101335.81
2023-03-03T03:09:19.515Z,101336.34
2023-03-03T03:11:48.249Z,101337.97
2023-03-03T03:14:17.787Z,101346.47
2023-03-03T03:16:44.686Z,101343.88
2023-03-03T03:19:11.212Z,101343.78
2023-03-03T03:21:38.695Z,101338.38
2023-03-03T03:24:07.101Z,101344.34
2023-03-03T03:26:35.535Z,101344.34
2023-03-03T03:29:02.938Z,101345.28
2023-03-03T03:31:29.808Z,101343.59
2023-03-03T03:33:56.376Z,101333.06
2023-03-03T03:36:23.677Z,101327.13
2023-03-03T03:38:50.899Z,101335.03
2023-03-03T03:41:17.385Z,101335.84
2023-03-03T03:43:44.811Z,101344.22
2023-03-03T03:46:11.609Z,101347.28
2023-03-03T03:48:38.351Z,101348.03
2023-03-03T03:51:05.992Z,101350.66
2023-03-03T03:53:33.646Z,101359.47
2023-03-03T03:56:00.358Z,101349.03
2023-03-03T03:58:26.957Z,101358.66
2023-03-03T04:01:07.015Z,101359.47
2023-03-03T04:03:37.136Z,101366.41
2023-03-03T04:06:08.051Z,101367.47
2023-03-03T04:08:34.741Z,101372.16
2023-03-03T04:11:01.768Z,101363.56
2023-03-03T04:13:31.892Z,101365.56
2023-03-03T04:16:01.835Z,101368.44
2023-03-03T04:18:28.516Z,101363.47
2023-03-03T04:20:55.926Z,101373.13
2023-03-03T04:23:22.430Z,101377.25
2023-03-03T04:25:49.977Z,101371.75
2023-03-03T04:28:19.781Z,101368.06
2023-03-03T04:30:48.209Z,101365.22
2023-03-03T04:33:16.955Z,101375.38
2023-03-03T04:35:43.555Z,101385.56
2023-03-03T04:38:10.145Z,101378.63
2023-03-03T04:40:41.654Z,101371.53
2023-03-03T04:43:09.661Z,101374.22
2023-03-03T04:45:37.105Z,101373.41
2023-03-03T04:48:04.201Z,101371.00
2023-03-03T04:50:31.027Z,101379.00
2023-03-03T04:52:58.015Z,101384.28
2023-03-03T04:55:24.564Z,101383.56
2023-03-03T04:57:51.692Z,101381.06
2023-03-03T05:00:18.689Z,101381.84
2023-03-03T05:02:48.105Z,101381.22
2023-03-03T05:05:15.009Z,101377.16
2023-03-03T05:07:41.470Z,101369.50
2023-03-03T05:10:08.510Z,101362.66
2023-03-03T05:12:35.056Z,101361.91
2023-03-03T05:15:01.783Z,101363.91
2023-03-03T05:17:28.493Z,101357.97
2023-03-03T05:19:58.167Z,101368.56
2023-03-03T05:22:25.172Z,101359.03
2023-03-03T05:24:51.838Z,101345.13
2023-03-03T05:27:18.610Z,101341.91
2023-03-03T05:29:45.431Z,101339.00
2023-03-03T05:32:11.927Z,101341.47
2023-03-03T05:34:38.453Z,101335.16
2023-03-03T05:37:06.725Z,101336.78
2023-03-03T05:39:34.120Z,101339.41
2023-03-03T05:42:00.845Z,101333.19
2023-03-03T05:44:27.603Z,101338.25
2023-03-03T05:46:54.303Z,101345.19
2023-03-03T05:49:20.803Z,101353.22
2023-03-03T05:51:47.281Z,101354.34
2023-03-03T05:54:13.719Z,101361.56
2023-03-03T05:56:40.141Z,101368.41
2023-03-03T05:59:06.689Z,101363.97
2023-03-03T06:01:33.971Z,101364.81
2023-03-03T06:04:00.487Z,101376.25
2023-03-03T06:06:28.263Z,101368.56
2023-03-03T06:08:57.143Z,101376.56
2023-03-03T06:11:24.100Z,101385.47
2023-03-03T06:13:50.871Z,101386.38
2023-03-03T06:16:18.591Z,101395.22
2023-03-03T06:18:45.243Z,101385.75
2023-03-03T06:21:11.974Z,101394.31
2023-03-03T06:23:38.604Z,101400.44
2023-03-03T06:26:05.320Z,101403.22
2023-03-03T06:28:31.941Z,101405.09
2023-03-03T06:30:59.816Z,101400.03
2023-03-03T06:33:26.581Z,101402.56
2023-03-03T06:35:54.523Z,101396.28
2023-03-03T06:38:21.193Z,101404.03
2023-03-03T06:40:48.125Z,101405.03
2023-03-03T06:43:14.761Z,101406.91
2023-03-03T06:45:41.314Z,101406.81
2023-03-03T06:48:08.049Z,101403.22
2023-03-03T06:50:34.934Z,101398.91
2023-03-03T06:53:16.141Z,101406.19
2023-03-03T06:55:45.214Z,101405.53
2023-03-03T06:58:16.003Z,101408.25
2023-03-03T07:00:45.420Z,101407.41
2023-03-03T07:03:23.417Z,101413.72
2023-03-03T07:05:50.439Z,101419.13
2023-03-03T07:08:20.604Z,101410.47
2023-03-03T07:10:48.353Z,101427.22
2023-03-03T07:13:19.379Z,101426.41
2023-03-03T07:15:48.649Z,101419.28
2023-03-03T07:18:50.934Z,101428.03
2023-03-03T07:21:22.190Z,101421.91
2023-03-03T07:23:51.068Z,101429.34
2023-03-03T07:26:22.719Z,101436.47
2023-03-03T07:29:16.845Z,101437.63
2023-03-03T07:31:47.435Z,101441.31
2023-03-03T07:34:22.877Z,101438.88
2023-03-03T07:36:53.540Z,101437.34
2023-03-03T07:39:28.284Z,101440.09
2023-03-03T07:42:02.762Z,101435.88
2023-03-03T07:44:36.940Z,101450.16
2023-03-03T07:47:22.294Z,101450.16
2023-03-03T07:49:50.375Z,101457.28
2023-03-03T07:52:57.150Z,101458.91
2023-03-03T07:55:31.337Z,101463.31
2023-03-03T07:58:16.462Z,101460.13
2023-03-03T08:00:43.524Z,101469.25
2023-03-03T08:03:20.772Z,101472.09
2023-03-03T08:05:48.187Z,101468.84
2023-03-03T08:08:36.824Z,101467.00
2023-03-03T08:11:06.037Z,101468.91
2023-03-03T08:13:37.667Z,101466.38
2023-03-03T08:16:09.951Z,101472.75
2023-03-03T08:18:38.271Z,101473.84
2023-03-03T08:21:11.112Z,101468.75
2023-03-03T08:23:37.583Z,101471.53
2023-03-03T08:26:04.162Z,101469.81
2023-03-03T08:28:30.767Z,101475.22
2023-03-03T08:31:09.132Z,101479.88
2023-03-03T08:33:43.708Z,101477.44
2023-03-03T08:36:11.301Z,101478.56
2023-03-03T08:38:39.545Z,101473.50
2023-03-03T08:41:06.949Z,101479.84
2023-03-03T08:43:33.574Z,101473.81
2023-03-03T08:46:01.969Z,101492.06
2023-03-03T08:48:29.570Z,101475.88
2023-03-03T08:50:56.199Z,101470.84
2023-03-03T08:53:23.701Z,101471.00
2023-03-03T08:55:50.853Z,101475.50
2023-03-03T08:58:20.368Z,101474.09
2023-03-03T09:00:50.231Z,101470.50
2023-03-03T09:03:17.677Z,101469.91
2023-03-03T09:05:45.181Z,101477.84
2023-03-03T09:08:12.050Z,101479.47
2023-03-03T09:10:39.009Z,101475.16
2023-03-03T09:13:14.734Z,101474.38
2023-03-03T09:15:41.551Z,101479.56
2023-03-03T09:18:24.863Z,101471.75
2023-03-03T09:20:54.496Z,101468.28
2023-03-03T09:23:23.809Z,101475.44
2023-03-03T09:25:51.436Z,101466.19
2023-03-03T09:28:31.313Z,101465.00
2023-03-03T09:31:01.260Z,101465.47
2023-03-03T09:33:45.991Z,101468.53
2023-03-03T09:36:29.595Z,101468.69
2023-03-03T09:38:58.165Z,101464.34
2023-03-03T09:41:55.544Z,101469.66
2023-03-03T09:44:52.965Z,101478.19
2023-03-03T09:48:19.323Z,101481.66
2023-03-03T09:51:15.046Z,101475.19
2023-03-03T09:53:50.938Z,101472.94
2023-03-03T09:56:25.528Z,101475.19
2023-03-03T09:59:16.596Z,101474.88
2023-03-03T10:01:49.933Z,101480.72
2023-03-03T10:04:42.581Z,101480.00
2023-03-03T10:07:19.585Z,101483.81
2023-03-03T10:10:03.271Z,101479.66
2023-03-03T10:12:44.684Z,101478.94
2023-03-03T10:15:46.603Z,101478.16
2023-03-03T10:18:28.765Z,101478.94
2023-03-03T10:21:19.871Z,101474.66
2023-03-03T10:24:00.177Z,101477.03
2023-03-03T10:27:13.030Z,101488.50
2023-03-03T10:30:20.157Z,101486.25
2023-03-03T10:33:08.845Z,101495.41
2023-03-03T10:36:07.484Z,101481.59
2023-03-03T10:38:46.581Z,101486.13
2023-03-03T10:41:22.210Z,101484.13
2023-03-03T10:44:15.163Z,101484.84
2023-03-03T10:46:41.843Z,101488.75
2023-03-03T10:49:19.667Z,101481.28
2023-03-03T10:52:04.655Z,101483.06
2023-03-03T10:54:58.742Z,101481.72
2023-03-03T10:57:53.381Z,101475.84
2023-03-03T11:00:30.209Z,101483.34
2023-03-03T11:03:29.194Z,101478.38
2023-03-03T11:06:01.346Z,101476.47
2023-03-03T11:08:36.238Z,101479.84
2023-03-03T11:11:28.921Z,101476.72
2023-03-03T11:14:36.711Z,101478.59
2023-03-03T11:17:27.852Z,101478.84
2023-03-03T11:20:03.402Z,101473.06
2023-03-03T11:22:47.071Z,101468.97
2023-03-03T11:25:37.007Z,101472.84
2023-03-03T11:28:17.167Z,101461.34
2023-03-03T11:31:14.767Z,101464.06
2023-03-03T11:34:06.657Z,101464.06
2023-03-03T11:36:42.055Z,101453.16
2023-03-03T11:39:12.045Z,101454.06
2023-03-03T11:41:53.376Z,101448.88
2023-03-03T11:44:31.243Z,101457.50
2023-03-03T11:47:15.656Z,101449.41
2023-03-03T11:50:00.713Z,101458.50
2023-03-03T11:52:46.310Z,101453.97
2023-03-03T11:55:23.614Z,101442.44
2023-03-03T11:58:31.567Z,101439.38
2023-03-03T12:01:09.594Z,101442.84
2023-03-03T12:03:41.831Z,101436.56
2023-03-03T12:06:27.301Z,101428.44
2023-03-03T12:09:00.986Z,101436.38
2023-03-03T12:11:39.408Z,101424.84
2023-03-03T12:14:13.257Z,101429.53
2023-03-03T12:16:59.542Z,101427.91
2023-03-03T12:19:41.369Z,101420.88
2023-03-03T12:22:23.693Z,101426.13
2023-03-03T12:24:59.008Z,101429.31
2023-03-03T12:27:34.668Z,101421.31
2023-03-03T12:30:20.589Z,101426.41
2023-03-03T12:33:04.427Z,101421.59
2023-03-03T12:35:43.171Z,101414.94
2023-03-03T12:38:30.486Z,101410.34
2023-03-03T12:41:33.732Z,101411.69
2023-03-03T12:44:22.928Z,101411.09
2023-03-03T12:47:01.928Z,101401.81
2023-03-03T12:49:42.770Z,101411.66
2023-03-03T12:52:28.776Z,101407.34
2023-03-03T12:55:14.053Z,101409.47
2023-03-03T12:58:04.304Z,101408.25
2023-03-03T13:00:43.142Z,101403.91
2023-03-03T13:03:22.205Z,101405.28
2023-03-03T13:06:15.582Z,101400.16
2023-03-03T13:09:02.927Z,101393.69
2023-03-03T13:12:08.042Z,101386.66
2023-03-03T13:14:49.947Z,101378.25
2023-03-03T13:17:37.036Z,101380.06
2023-03-03T13:20:34.454Z,101379.47
2023-03-03T13:23:17.721Z,101377.34
2023-03-03T13:25:53.371Z,101383.03
2023-03-03T13:28:34.129Z,101373.38
2023-03-03T13:31:11.776Z,101369.28
2023-03-03T13:33:49.007Z,101365.00
2023-03-03T13:36:16.756Z,101357.53
2023-03-03T13:38:48.613Z,101356.88
2023-03-03T13:41:27.528Z,101355.06
2023-03-03T13:43:59.821Z,101359.72
2023-03-03T13:46:51.980Z,101348.84
2023-03-03T13:49:35.311Z,101340.38
2023-03-03T13:52:06.277Z,101341.00
2023-03-03T13:54:35.671Z,101328.84
2023-03-03T13:57:08.264Z,101329.69
2023-03-03T13:59:46.699Z,101323.81
2023-03-03T14:02:32.006Z,101323.19
2023-03-03T14:05:12.569Z,101316.25
2023-03-03T14:07:45.220Z,101317.81
2023-03-03T14:10:40.518Z,101313.91
2023-03-03T14:13:13.430Z,101315.28
2023-03-03T14:15:48.427Z,101311.13
2023-03-03T14:18:41.240Z,101320.59
2023-03-03T14:21:26.349Z,101316.06
2023-03-03T14:24:14.956Z,101309.97
2023-03-03T14:26:56.286Z,101305.16
2023-03-03T14:29:31.852Z,101310.31
2023-03-03T14:32:01.730Z,101307.06
2023-03-03T14:34:38.916Z,101310.34
2023-03-03T14:37:22.702Z,101302.22
2023-03-03T14:40:14.735Z,101305.59
2023-03-03T14:42:55.852Z,101299.22
2023-03-03T14:45:41.864Z,101300.19
2023-03-03T14:48:19.062Z,101296.50
2023-03-03T14:51:04.701Z,101302.31
2023-03-03T14:53:33.615Z,101290.81
2023-03-03T14:56:22.488Z,101286.81
2023-03-03T14:58:50.011Z,101297.84
2023-03-03T15:01:23.415Z,101296.44
2023-03-03T15:04:00.101Z,101290.41
2023-03-03T15:06:54.634Z,101282.81
2023-03-03T15:09:30.495Z,101286.66
2023-03-03T15:11:58.940Z,101283.44
2023-03-03T15:14:38.165Z,101289.22
2023-03-03T15:17:23.041Z,101283.94
2023-03-03T15:19:57.832Z,101279.50
2023-03-03T15:22:45.672Z,101281.78
2023-03-03T15:25:24.127Z,101277.78
2023-03-03T15:28:11.229Z,101281.00
2023-03-03T15:30:53.356Z,101276.28
2023-03-03T15:33:31.018Z,101274.84
2023-03-03T15:36:32.693Z,101272.28
2023-03-03T15:39:02.191Z,101275.50
2023-03-03T15:41:47.879Z,101270.97
2023-03-03T15:44:32.607Z,101266.28
2023-03-03T15:47:23.708Z,101265.34
2023-03-03T15:50:06.138Z,101270.31
2023-03-03T15:52:38.432Z,101262.13
2023-03-03T15:55:47.364Z,101257.56
2023-03-03T15:58:39.781Z,101255.72
2023-03-03T16:01:24.836Z,101252.84
2023-03-03T16:04:01.003Z,101246.50
2023-03-03T16:06:38.253Z,101245.38
2023-03-03T16:09:33.562Z,101256.97
2023-03-03T16:12:26.563Z,101257.66
2023-03-03T16:15:10.085Z,101254.44
2023-03-03T16:17:40.853Z,101252.50
2023-03-03T16:20:31.612Z,101257.41
2023-03-03T16:23:17.288Z,101257.19
2023-03-03T16:25:52.573Z,101249.13
2023-03-03T16:28:34.210Z,101249.88
2023-03-03T16:31:11.066Z,101252.44
2023-03-03T16:33:44.071Z,101253.06
2023-03-03T16:36:18.645Z,101243.97
2023-03-03T16:39:03.655Z,101256.75
2023-03-03T16:41:55.680Z,101253.69
2023-03-03T16:44:38.227Z,101258.66
2023-03-03T16:47:23.124Z,101260.84
2023-03-03T16:50:03.012Z,101257.72
2023-03-03T16:52:45.012Z,101258.94
2023-03-03T16:55:22.352Z,101263.00
2023-03-03T16:58:10.462Z,101261.91
2023-03-03T17:00:52.482Z,101260.63
2023-03-03T17:03:57.993Z,101250.44
2023-03-03T17:06:42.748Z,101259.59
2023-03-03T17:09:32.577Z,101260.94
2023-03-03T17:12:37.055Z,101267.53
2023-03-03T17:15:20.220Z,101266.31
2023-03-03T17:17:49.921Z,101271.25
2023-03-03T17:20:32.393Z,101268.25
2023-03-03T17:23:42.401Z,101269.56
2023-03-03T17:26:33.901Z,101274.50
2023-03-03T17:29:39.096Z,101275.97
2023-03-03T17:32:33.105Z,101273.06
2023-03-03T17:35:08.836Z,101284.16
2023-03-03T17:38:03.018Z,101283.84
2023-03-03T17:40:51.276Z,101281.72
2023-03-03T17:43:58.121Z,101278.88
2023-03-03T17:46:46.209Z,101283.84
2023-03-03T17:49:21.709Z,101282.00
2023-03-03T17:52:09.027Z,101284.34
2023-03-03T17:55:04.485Z,101279.06
2023-03-03T17:57:39.716Z,101285.75
2023-03-03T18:00:12.877Z,101276.84
2023-03-03T18:03:02.790Z,101278.31
2023-03-03T18:06:17.226Z,101271.22
2023-03-03T18:09:16.769Z,101270.97
2023-03-03T18:12:05.154Z,101271.78
2023-03-03T18:15:08.524Z,101267.53
2023-03-03T18:17:46.337Z,101274.91
2023-03-03T18:20:21.431Z,101277.25
2023-03-03T18:22:53.010Z,101272.69
2023-03-03T18:25:55.203Z,101280.41
2023-03-03T18:28:23.474Z,101274.84
2023-03-03T18:30:49.886Z,101266.47
2023-03-03T18:33:16.486Z,101268.56
2023-03-03T18:35:46.046Z,101268.91
2023-03-03T18:38:15.474Z,101263.16
2023-03-03T18:41:13.127Z,101271.31
2023-03-03T18:43:45.305Z,101268.84
2023-03-03T18:46:20.938Z,101269.91
2023-03-03T18:49:09.372Z,101274.41
2023-03-03T18:51:38.404Z,101272.00
2023-03-03T18:54:14.157Z,101268.63
2023-03-03T18:56:47.791Z,101267.97
2023-03-03T18:59:36.459Z,101268.84
2023-03-03T19:02:21.320Z,101272.38
2023-03-03T19:04:56.640Z,101266.41
2023-03-03T19:07:30.115Z,101261.97
2023-03-03T19:10:25.256Z,101262.75
2023-03-03T19:12:52.913Z,101272.22
2023-03-03T19:15:31.999Z,101273.94
2023-03-03T19:18:01.625Z,101268.78
2023-03-03T19:20:53.056Z,101266.16
2023-03-03T19:23:34.252Z,101270.50
2023-03-03T19:26:26.108Z,101265.34
2023-03-03T19:28:58.411Z,101264.44
2023-03-03T19:31:30.809Z,101266.16
2023-03-03T19:34:12.014Z,101267.97
2023-03-03T19:36:54.197Z,101272.31
2023-03-03T19:39:40.334Z,101259.16
2023-03-03T19:42:15.373Z,101260.78
2023-03-03T19:45:04.313Z,101265.19
2023-03-03T19:47:34.670Z,101255.56
2023-03-03T19:50:32.788Z,101258.97
2023-03-03T19:53:34.064Z,101262.44
2023-03-03T19:56:15.949Z,101256.34
2023-03-03T19:59:00.183Z,101256.47
2023-03-03T20:02:18.060Z,101264.38
2023-03-03T20:05:03.263Z,101251.38
2023-03-03T20:07:56.110Z,101255.81
2023-03-03T20:10:38.373Z,101249.78
2023-03-03T20:13:19.085Z,101244.69
2023-03-03T20:16:16.126Z,101245.53
2023-03-03T20:18:52.944Z,101243.81
2023-03-03T20:21:36.029Z,101246.44
2023-03-03T20:24:17.716Z,101234.09
2023-03-03T20:27:10.632Z,101238.34
2023-03-03T20:30:02.614Z,101239.97
2023-03-03T20:33:11.263Z,101233.84
2023-03-03T20:35:42.606Z,101246.88
2023-03-03T20:38:27.946Z,101241.63
2023-03-03T20:41:23.850Z,101246.00
2023-03-03T20:44:41.769Z,101234.47
2023-03-03T20:47:32.294Z,101237.88
2023-03-03T20:50:20.125Z,101229.97
2023-03-03T20:53:07.729Z,101227.41
2023-03-03T20:55:46.362Z,101232.72
2023-03-03T20:58:46.145Z,101220.47
2023-03-03T21:01:16.027Z,101230.09
2023-03-03T21:03:45.396Z,101221.38
2023-03-03T21:06:20.961Z,101227.56
2023-03-03T21:08:56.204Z,101231.16
2023-03-03T21:11:31.644Z,101230.34
2023-03-03T21:13:59.815Z,101225.25
2023-03-03T21:16:26.272Z,101234.88
2023-03-03T21:18:59.138Z,101225.31
2023-03-03T21:21:30.798Z,101227.19
2023-03-03T21:23:59.077Z,101218.56
2023-03-03T21:26:50.698Z,101229.22
2023-03-03T21:29:19.514Z,101226.66
2023-03-03T21:32:06.505Z,101217.09
2023-03-03T21:34:34.357Z,101214.56
2023-03-03T21:37:02.564Z,101217.25
2023-03-03T21:39:34.968Z,101214.56
2023-03-03T21:42:02.693Z,101211.03
2023-03-03T21:44:50.136Z,101207.50
2023-03-03T21:47:19.906Z,101214.56
2023-03-03T21:49:48.533Z,101217.16
2023-03-03T21:52:16.805Z,101205.84
2023-03-03T21:54:44.447Z,101209.31
2023-03-03T21:57:11.451Z,101204.81
2023-03-03T21:59:38.147Z,101200.34
2023-03-03T22:02:05.275Z,101206.38
2023-03-03T22:04:31.975Z,101209.84
2023-03-03T22:06:58.799Z,101195.84
2023-03-03T22:09:25.413Z,101198.47
2023-03-03T22:11:52.163Z,101194.94
2023-03-03T22:14:18.692Z,101192.25
2023-03-03T22:16:45.715Z,101193.16
2023-03-03T22:19:12.304Z,101187.94
2023-03-03T22:21:39.642Z,101184.41
2023-03-03T22:24:07.517Z,101173.88
2023-03-03T22:26:34.486Z,101173.72
2023-03-03T22:29:01.057Z,101175.31
2023-03-03T22:31:27.896Z,101175.00
2023-03-03T22:33:54.413Z,101157.28
2023-03-03T22:36:21.204Z,101158.72
2023-03-03T22:38:48.267Z,101159.22
2023-03-03T22:41:15.819Z,101155.34
2023-03-03T22:43:42.290Z,101156.84
2023-03-03T22:46:09.712Z,101152.22
2023-03-03T22:48:36.621Z,101150.13
2023-03-03T22:51:03.520Z,101155.03
2023-03-03T22:53:31.246Z,101147.84
2023-03-03T22:55:57.731Z,101147.56
2023-03-03T22:58:27.093Z,101142.09
2023-03-03T23:00:54.437Z,101148.88
2023-03-03T23:03:21.480Z,101146.91
2023-03-03T23:05:51.482Z,101152.00
2023-03-03T23:08:20.149Z,101154.47
2023-03-03T23:10:47.139Z,101158.72
2023-03-03T23:13:14.213Z,101149.06
2023-03-03T23:15:40.774Z,101144.69
2023-03-03T23:18:07.643Z,101149.91
2023-03-03T23:20:34.399Z,101159.47
2023-03-03T23:23:01.169Z,101158.72
2023-03-03T23:25:28.794Z,101154.38
2023-03-03T23:27:56.019Z,101158.88
2023-03-03T23:30:23.586Z,101148.41
2023-03-03T23:32:50.535Z,101148.56
2023-03-03T23:35:17.933Z,101141.94
2023-03-03T23:37:45.051Z,101150.97
2023-03-03T23:40:12.426Z,101144.34
2023-03-03T23:42:38.895Z,101148.16
2023-03-03T23:45:05.994Z,101147.63
2023-03-03T23:47:32.813Z,101141.75
2023-03-03T23:49:59.434Z,101153.41
2023-03-03T23:52:26.147Z,101151.75
2023-03-03T23:54:53.122Z,101136.97
2023-03-03T23:57:19.771Z,101144.22
2023-03-03T23:59:46.237Z,101133.03
